Time;durP1;ratioP1;P1;durP2;ratioP2;P2;SDS_P1;SDS_P2;PMS_P1;PMS_P2;Temp;Humidity;BMP_temperature;BMP_pressure;BME280_temperature;BME280_humidity;BME280_pressure;Samples;Min_cycle;Max_cycle;Signal;HPM_P1;HPM_P2
2022/12/05 00:00:54;;;;;;;24.17;14.23;;;;;;;-0.52;100.00;100457.44;1720791;83;20993;-75
2022/12/05 00:03:21;;;;;;;21.07;14.03;;;;;;;-0.56;100.00;100462.08;1719277;83;21015;-75
2022/12/05 00:05:48;;;;;;;20.68;13.80;;;;;;;-0.60;100.00;100457.78;1708076;83;21131;-75
2022/12/05 00:08:15;;;;;;;18.75;13.32;;;;;;;-0.60;100.00;100457.78;1709731;82;20984;-75
2022/12/05 00:10:41;;;;;;;26.50;17.40;;;;;;;-0.64;100.00;100448.31;1714455;83;21043;-74
2022/12/05 00:13:08;;;;;;;21.60;15.15;;;;;;;-0.63;100.00;100451.34;1714275;82;21013;-74
2022/12/05 00:15:40;;;;;;;20.25;12.45;;;;;;;-0.58;100.00;100454.81;1714947;83;21091;-74
2022/12/05 00:18:07;;;;;;;27.77;14.30;;;;;;;-0.68;100.00;100444.44;1716498;83;20963;-74
2022/12/05 00:20:34;;;;;;;24.63;14.30;;;;;;;-0.64;100.00;100445.75;1720314;83;21085;-74
2022/12/05 00:23:01;;;;;;;21.45;13.48;;;;;;;-0.60;100.00;100435.98;1710785;82;20937;-74
2022/12/05 00:25:28;;;;;;;23.55;16.27;;;;;;;-0.62;100.00;100429.97;1699034;83;21617;-74
2022/12/05 00:27:54;;;;;;;17.98;11.93;;;;;;;-0.61;100.00;100442.81;1667917;85;21489;-74
2022/12/05 00:30:21;;;;;;;22.20;14.30;;;;;;;-0.59;100.00;100435.12;1646234;86;21052;-74
2022/12/05 00:32:47;;;;;;;21.52;13.90;;;;;;;-0.62;100.00;100431.25;1676560;85;21044;-74
2022/12/05 00:35:14;;;;;;;21.42;13.75;;;;;;;-0.75;100.00;100437.98;1690226;83;21067;-74
2022/12/05 00:37:41;;;;;;;20.70;13.40;;;;;;;-0.68;100.00;100432.05;1650411;86;20982;-74
2022/12/05 00:40:09;;;;;;;24.50;15.55;;;;;;;-0.61;100.00;100432.98;1643602;86;21686;-74
2022/12/05 00:42:36;;;;;;;27.70;16.25;;;;;;;-0.58;100.00;100433.02;1667444;85;21037;-74
2022/12/05 00:45:03;;;;;;;21.23;14.40;;;;;;;-0.53;100.00;100439.05;1680979;84;21073;-75
2022/12/05 00:47:29;;;;;;;23.40;13.88;;;;;;;-0.49;100.00;100420.26;1667191;85;21054;-75
2022/12/05 00:49:56;;;;;;;21.10;14.25;;;;;;;-0.64;100.00;100423.95;1679517;84;21013;-75
2022/12/05 00:52:22;;;;;;;18.42;11.93;;;;;;;-0.64;100.00;100422.67;1657087;85;20954;-74
2022/12/05 00:54:49;;;;;;;20.30;13.68;;;;;;;-0.63;100.00;100421.84;1668985;85;21061;-74
2022/12/05 00:57:16;;;;;;;18.50;12.88;;;;;;;-0.63;100.00;100424.41;1716362;83;21660;-74
2022/12/05 00:59:42;;;;;;;18.85;12.80;;;;;;;-0.62;100.00;100428.68;1728443;82;20966;-74
2022/12/05 01:02:09;;;;;;;19.70;13.38;;;;;;;-0.64;100.00;100426.52;1712253;82;21093;-74
2022/12/05 01:04:36;;;;;;;18.02;13.32;;;;;;;-0.60;100.00;100423.16;1720622;82;21030;-74
2022/12/05 01:07:03;;;;;;;16.60;11.70;;;;;;;-0.64;100.00;100425.23;1719646;82;21052;-75
2022/12/05 01:09:29;;;;;;;15.75;11.65;;;;;;;-0.66;100.00;100432.08;1716619;82;21057;-74
2022/12/05 01:11:56;;;;;;;16.07;11.88;;;;;;;-0.66;100.00;100441.05;1719404;83;21513;-75
2022/12/05 01:14:25;;;;;;;17.82;12.43;;;;;;;-0.65;100.00;100441.48;1718405;83;20975;-74
2022/12/05 01:16:54;;;;;;;22.55;12.00;;;;;;;-0.64;100.00;100434.21;1698608;83;21026;-74
2022/12/05 01:19:26;;;;;;;15.72;11.57;;;;;;;-0.65;100.00;100436.34;1718559;83;21091;-75
2022/12/05 01:21:54;;;;;;;16.90;12.25;;;;;;;-0.60;100.00;100435.98;1684484;84;21532;-74
2022/12/05 01:24:22;;;;;;;18.52;13.13;;;;;;;-0.63;100.00;100411.58;1669551;85;21049;-74
2022/12/05 01:26:48;;;;;;;18.37;13.62;;;;;;;-0.65;100.00;100432.08;1678994;85;21030;-74
2022/12/05 01:29:19;;;;;;;22.15;14.40;;;;;;;-0.65;100.00;100433.78;1683945;84;21053;-74
2022/12/05 01:31:46;;;;;;;19.15;11.70;;;;;;;-0.70;100.00;100437.18;1644547;85;21560;-74
2022/12/05 01:34:16;;;;;;;22.77;13.72;;;;;;;-0.72;100.00;100423.90;1663006;85;21517;-74
2022/12/05 01:36:43;;;;;;;16.90;11.83;;;;;;;-0.76;100.00;100431.97;1664230;85;21063;-74
2022/12/05 01:39:12;;;;;;;17.30;12.03;;;;;;;-0.80;100.00;100423.81;1669383;84;21505;-74
2022/12/05 01:41:46;;;;;;;21.62;11.93;;;;;;;-0.78;100.00;100425.98;1677170;84;21524;-74
2022/12/05 01:44:18;;;;;;;14.95;11.73;;;;;;;-0.78;100.00;100429.83;1670037;84;21113;-74
2022/12/05 01:46:50;;;;;;;16.67;11.85;;;;;;;-0.77;100.00;100421.28;1664726;85;21531;-74
2022/12/05 01:49:28;;;;;;;19.85;13.10;;;;;;;-0.80;100.00;100422.53;1670958;85;21075;-75
2022/12/05 01:52:18;;;;;;;18.52;12.98;;;;;;;-0.83;100.00;100422.51;1666224;85;22313;-75
2022/12/05 01:54:48;;;;;;;17.48;11.90;;;;;;;-0.82;100.00;100410.11;1682138;84;21013;-74
2022/12/05 01:57:15;;;;;;;16.48;11.68;;;;;;;-0.86;100.00;100413.94;1674775;84;21068;-74
2022/12/05 01:59:46;;;;;;;20.77;12.58;;;;;;;-0.89;100.00;100410.91;1675273;84;21097;-74
2022/12/05 02:02:13;;;;;;;21.20;13.88;;;;;;;-0.85;100.00;100413.93;1671234;85;21540;-74
2022/12/05 02:04:46;;;;;;;18.10;12.53;;;;;;;-0.95;100.00;100409.58;1672642;85;21631;-74
2022/12/05 02:07:12;;;;;;;19.48;13.83;;;;;;;-0.89;100.00;100399.37;1686535;82;21050;-74
2022/12/05 02:09:39;;;;;;;19.40;13.48;;;;;;;-0.99;100.00;100424.04;1716885;82;21121;-75
2022/12/05 02:12:06;;;;;;;18.42;13.65;;;;;;;-0.91;100.00;100424.13;1708475;82;21053;-74
2022/12/05 02:15:13;;;;;;;22.00;14.70;;;;;;;-0.85;100.00;100423.33;1717705;82;21042;-74
2022/12/05 02:18:06;;;;;;;20.08;15.15;;;;;;;-0.96;100.00;100420.66;1701917;82;21046;-74
2022/12/05 02:21:01;;;;;;;19.57;13.95;;;;;;;-0.94;100.00;100430.08;1710757;82;21052;-75
2022/12/05 02:24:06;;;;;;;27.55;15.58;;;;;;;-0.99;100.00;100433.44;1627570;86;21118;-74
2022/12/05 02:26:52;;;;;;;28.52;16.75;;;;;;;-0.97;100.00;100425.35;1650977;85;21470;-74
2022/12/05 02:29:27;;;;;;;22.32;15.83;;;;;;;-0.98;100.00;100424.89;1646899;84;21112;-74
2022/12/05 02:32:16;;;;;;;21.05;14.10;;;;;;;-0.94;100.00;100426.66;1644149;86;21059;-74
2022/12/05 02:35:06;;;;;;;21.33;14.47;;;;;;;-0.95;100.00;100422.39;1631043;86;21028;-74
2022/12/05 02:37:47;;;;;;;19.25;13.88;;;;;;;-1.03;100.00;100411.19;1645594;86;21075;-74
2022/12/05 02:40:26;;;;;;;19.32;13.95;;;;;;;-1.07;100.00;100413.27;1626338;88;21676;-75
2022/12/05 02:43:19;;;;;;;22.07;15.53;;;;;;;-1.06;100.00;100422.70;1597757;88;21078;-74
2022/12/05 02:45:50;;;;;;;20.35;13.68;;;;;;;-1.06;100.00;100416.29;1590153;90;21592;-74
2022/12/05 02:48:18;;;;;;;20.20;15.08;;;;;;;-1.08;100.00;100411.56;1591970;89;21674;-74
2022/12/05 02:50:48;;;;;;;21.50;16.00;;;;;;;-1.06;100.00;100415.01;1591568;88;21327;-74
2022/12/05 02:53:17;;;;;;;22.50;12.43;;;;;;;-1.02;100.00;100409.05;1599122;89;21124;-74
2022/12/05 02:55:44;;;;;;;22.77;16.20;;;;;;;-1.01;100.00;100399.23;1601668;89;21079;-74
2022/12/05 02:58:19;;;;;;;24.85;16.95;;;;;;;-1.02;100.00;100400.09;1599674;88;21100;-74
2022/12/05 03:00:50;;;;;;;22.27;15.28;;;;;;;-1.05;100.00;100400.05;1604244;87;21034;-74
2022/12/05 03:03:20;;;;;;;17.87;14.38;;;;;;;-1.04;100.00;100394.08;1603154;89;21083;-74
2022/12/05 03:06:04;;;;;;;21.80;12.85;;;;;;;-1.12;100.00;100396.58;1651894;85;21016;-75
2022/12/05 03:08:36;;;;;;;21.75;14.78;;;;;;;-1.13;100.00;100393.13;1647415;85;21072;-74
2022/12/05 03:11:03;;;;;;;20.48;14.18;;;;;;;-1.15;100.00;100398.69;1649403;86;21644;-74
2022/12/05 03:13:41;;;;;;;22.70;15.15;;;;;;;-1.14;100.00;100393.98;1647220;86;21068;-74
2022/12/05 03:16:13;;;;;;;25.37;14.05;;;;;;;-1.09;100.00;100394.05;1652812;85;21621;-74
2022/12/05 03:18:47;;;;;;;15.40;12.37;;;;;;;-1.09;100.00;100390.59;1714234;81;21068;-74
2022/12/05 03:21:31;;;;;;;18.25;13.95;;;;;;;-1.11;100.00;100388.46;1661274;85;21004;-74
2022/12/05 03:24:09;;;;;;;19.52;12.95;;;;;;;-1.20;100.00;100375.98;1664414;85;21044;-75
2022/12/05 03:27:07;;;;;;;22.77;15.55;;;;;;;-1.21;100.00;100361.43;1643173;86;21004;-74
2022/12/05 03:29:48;;;;;;;20.97;14.07;;;;;;;-1.22;100.00;100377.66;1674602;85;21521;-74
2022/12/05 03:32:49;;;;;;;18.80;14.38;;;;;;;-1.20;100.00;100367.45;1673409;85;21088;-74
2022/12/05 03:35:50;;;;;;;20.97;14.58;;;;;;;-1.20;100.00;100365.73;1657319;85;21546;-74
2022/12/05 03:38:27;;;;;;;20.12;15.70;;;;;;;-1.25;100.00;100363.97;1682504;83;21016;-74
2022/12/05 03:40:59;;;;;;;21.40;14.60;;;;;;;-1.26;100.00;100370.80;1671900;84;21628;-74
2022/12/05 03:43:40;;;;;;;21.85;14.45;;;;;;;-1.27;100.00;100373.33;1671441;84;21069;-74
2022/12/05 03:46:29;;;;;;;16.48;11.90;;;;;;;-1.34;100.00;100372.41;1680758;83;20985;-75
2022/12/05 03:49:25;;;;;;;21.55;15.32;;;;;;;-1.34;100.00;100373.70;1655556;85;20971;-75
2022/12/05 03:52:03;;;;;;;19.75;14.43;;;;;;;-1.36;100.00;100366.41;1643947;85;21151;-74
2022/12/05 03:54:53;;;;;;;20.68;14.90;;;;;;;-1.40;100.00;100360.39;1715237;83;20970;-74
2022/12/05 03:57:33;;;;;;;18.80;14.90;;;;;;;-1.40;100.00;100369.75;1714610;82;21082;-74
2022/12/05 04:00:05;;;;;;;17.37;13.38;;;;;;;-1.41;100.00;100368.05;1711242;82;21551;-75
2022/12/05 04:02:55;;;;;;;20.00;14.55;;;;;;;-1.40;100.00;100369.75;1703596;83;21031;-75
2022/12/05 04:05:42;;;;;;;23.62;15.15;;;;;;;-1.41;100.00;100370.61;1709338;82;21057;-75
2022/12/05 04:08:17;;;;;;;25.20;14.13;;;;;;;-1.45;100.00;100375.27;1712796;82;20998;-74
2022/12/05 04:10:50;;;;;;;20.00;15.30;;;;;;;-1.39;100.00;100370.22;1706252;81;21546;-74
2022/12/05 04:13:39;;;;;;;22.67;17.23;;;;;;;-1.37;100.00;100367.26;1716175;83;21584;-74
2022/12/05 04:19:13;;;;;;;17.20;13.22;;;;;;;-1.33;100.00;100360.03;1705564;82;21037;-74
2022/12/05 04:21:51;;;;;;;18.25;13.05;;;;;;;-1.33;100.00;100370.28;1704164;82;20987;-74
2022/12/05 04:27:30;;;;;;;22.20;13.10;;;;;;;-1.32;100.00;100360.88;1712950;83;21538;-74
2022/12/05 04:30:17;;;;;;;18.50;15.13;;;;;;;-1.36;100.00;100356.16;1707421;83;21030;-74
2022/12/05 04:32:58;;;;;;;16.20;13.18;;;;;;;-1.34;100.00;100351.92;1717664;83;20949;-74
2022/12/05 04:35:50;;;;;;;20.97;14.18;;;;;;;-1.33;100.00;100353.62;1708658;83;21024;-74
2022/12/05 04:38:33;;;;;;;19.02;15.10;;;;;;;-1.30;100.00;100360.48;1706141;83;21469;-74
2022/12/05 04:41:05;;;;;;;21.12;15.08;;;;;;;-1.29;100.00;100360.48;1711133;83;21029;-74
2022/12/05 04:43:36;;;;;;;19.00;14.78;;;;;;;-1.25;100.00;100359.70;1704516;83;21574;-74
2022/12/05 04:46:07;;;;;;;20.88;14.53;;;;;;;-1.16;100.00;100359.78;1698805;82;21132;-74
2022/12/05 04:48:38;;;;;;;19.95;13.60;;;;;;;-1.16;100.00;100359.78;1695082;83;21065;-75
2022/12/05 04:51:08;;;;;;;17.12;14.60;;;;;;;-1.20;100.00;100358.05;1700277;82;20935;-74
2022/12/05 04:53:36;;;;;;;44.08;17.17;;;;;;;-1.20;100.00;100365.73;1694580;83;21032;-74
2022/12/05 04:56:05;;;;;;;24.57;16.45;;;;;;;-1.15;100.00;100368.33;1701575;83;20970;-74
2022/12/05 04:58:32;;;;;;;20.27;13.83;;;;;;;-1.14;100.00;100356.83;1694021;83;20973;-75
2022/12/05 05:01:21;;;;;;;31.40;15.33;;;;;;;-1.17;100.00;100370.89;1702058;82;20930;-75
2022/12/05 05:03:58;;;;;;;21.68;14.60;;;;;;;-1.26;100.00;100350.30;1701420;83;21720;-74
2022/12/05 05:06:25;;;;;;;24.27;17.23;;;;;;;-1.22;100.00;100371.26;1721024;83;21039;-75
2022/12/05 05:08:54;;;;;;;;;;;;;;;-1.20;100.00;100375.98;1711863;83;20989;-74
2022/12/05 05:11:28;;;;;;;19.02;13.83;;;;;;;-1.28;100.00;100366.07;1700951;83;20158;-74
2022/12/05 05:13:55;;;;;;;19.60;15.40;;;;;;;-1.35;100.00;100363.84;1710349;82;20990;-74
2022/12/05 05:16:28;;;;;;;20.25;15.53;;;;;;;-1.36;100.00;100361.28;1699679;83;21068;-74
2022/12/05 05:18:55;;;;;;;23.20;16.70;;;;;;;-1.33;100.00;100361.31;1705504;83;21074;-74
2022/12/05 05:21:36;;;;;;;27.40;16.07;;;;;;;-1.33;100.00;100363.02;1701345;83;21072;-74
2022/12/05 05:24:04;;;;;;;24.50;16.20;;;;;;;-1.35;100.00;100357.86;1700309;82;21735;-74
2022/12/05 05:26:35;;;;;;;21.93;15.18;;;;;;;-1.32;100.00;100357.04;1701142;83;21036;-74
2022/12/05 05:29:01;;;;;;;21.73;15.13;;;;;;;-1.37;100.00;100351.89;1703738;82;21001;-75
2022/12/05 05:31:28;;;;;;;23.85;16.60;;;;;;;-1.32;100.00;100347.65;1702117;83;21544;-74
2022/12/05 05:33:57;;;;;;;24.80;17.23;;;;;;;-1.19;100.00;100358.47;1708977;82;21622;-74
2022/12/05 05:36:27;;;;;;;18.10;13.75;;;;;;;-1.23;100.00;100364.42;1710659;82;21085;-74
2022/12/05 05:38:57;;;;;;;30.20;20.12;;;;;;;-1.29;100.00;100355.36;1702400;83;21041;-74
2022/12/05 05:41:31;;;;;;;25.92;15.10;;;;;;;-1.28;100.00;100354.55;1726505;82;21081;-74
2022/12/05 05:43:59;;;;;;;29.15;17.20;;;;;;;-1.31;100.00;100358.36;1718381;83;20974;-74
2022/12/05 05:46:29;;;;;;;23.98;16.40;;;;;;;-1.31;100.00;100355.80;1708089;82;21026;-74
2022/12/05 05:48:56;;;;;;;22.85;16.15;;;;;;;-1.26;100.00;100360.55;1699113;83;21043;-74
2022/12/05 05:51:28;;;;;;;21.62;15.93;;;;;;;-1.14;100.00;100361.95;1693894;81;21527;-74
2022/12/05 05:53:56;;;;;;;23.27;16.00;;;;;;;-1.42;100.00;100333.89;1675350;83;21004;-74
2022/12/05 05:56:23;;;;;;;24.87;16.85;;;;;;;-1.23;100.00;100350.73;1679038;83;21014;-75
2022/12/05 05:59:00;;;;;;;21.12;15.78;;;;;;;-1.31;100.00;100351.95;1682463;83;21095;-74
2022/12/05 06:01:27;;;;;;;25.90;17.05;;;;;;;-1.25;100.00;100354.57;1682981;83;21010;-74
2022/12/05 06:03:54;;;;;;;22.93;16.40;;;;;;;-1.24;100.00;100356.28;1679746;83;21670;-75
2022/12/05 06:06:21;;;;;;;26.57;18.25;;;;;;;-1.22;100.00;100367.41;1689104;83;21017;-75
2022/12/05 06:08:48;;;;;;;21.42;16.67;;;;;;;-1.20;100.00;100365.73;1680059;82;21499;-75
2022/12/05 06:11:19;;;;;;;23.67;16.17;;;;;;;-1.23;100.00;100364.81;1684238;83;21078;-74
2022/12/05 06:13:46;;;;;;;19.62;15.48;;;;;;;-1.23;100.00;100364.81;1699187;83;21013;-74
2022/12/05 06:16:16;;;;;;;23.30;17.30;;;;;;;-1.25;100.00;100367.38;1683601;83;21097;-74
2022/12/05 06:18:42;;;;;;;26.70;18.82;;;;;;;-1.24;100.00;100371.66;1683818;83;21495;-74
2022/12/05 06:21:10;;;;;;;23.03;16.33;;;;;;;-1.22;100.00;100367.84;1688351;83;21077;-75
2022/12/05 06:23:37;;;;;;;;;;;;;;;-1.22;100.00;100373.82;1684742;82;21033;-74
2022/12/05 06:26:07;;;;;;;25.88;19.00;;;;;;;-1.26;100.00;100373.36;1695313;83;20105;-74
2022/12/05 06:28:34;;;;;;;23.52;19.12;;;;;;;-1.24;100.00;100384.47;1705374;82;21509;-74
2022/12/05 06:31:09;;;;;;;21.87;15.03;;;;;;;-1.25;100.00;100378.91;1715887;83;21579;-74
2022/12/05 06:33:35;;;;;;;22.98;17.45;;;;;;;-1.19;100.00;100364.03;1705934;83;21106;-75
2022/12/05 06:36:10;;;;;;;32.95;18.73;;;;;;;-1.22;100.00;100361.01;1708349;83;20989;-74
2022/12/05 06:38:37;;;;;;;25.02;15.15;;;;;;;-1.16;100.00;100368.75;1701935;83;20998;-75
2022/12/05 06:41:08;;;;;;;25.90;18.45;;;;;;;-1.19;100.00;100370.01;1717344;83;21002;-74
2022/12/05 06:43:35;;;;;;;22.27;16.90;;;;;;;-1.26;100.00;100365.67;1715184;83;20978;-75
2022/12/05 06:46:10;;;;;;;23.30;16.87;;;;;;;-1.26;100.00;100363.11;1716418;83;20938;-75
2022/12/05 06:48:37;;;;;;;26.12;16.80;;;;;;;-1.26;100.00;100363.11;1715732;83;21043;-75
2022/12/05 06:51:05;;;;;;;18.85;13.93;;;;;;;-1.25;100.00;100355.00;1718933;82;21025;-75
2022/12/05 06:53:32;;;;;;;29.42;19.50;;;;;;;-1.25;100.00;100349.45;1725924;82;21318;-75
2022/12/05 06:56:02;;;;;;;24.35;15.70;;;;;;;-1.24;100.00;100348.59;1692970;83;21043;-75
2022/12/05 06:58:30;;;;;;;25.05;16.15;;;;;;;-1.21;100.00;100356.31;1695778;83;21030;-75
2022/12/05 07:03:42;;;;;;;21.77;15.23;;;;;;;-1.22;100.00;100357.16;1721149;83;20959;-75
2022/12/05 07:06:10;;;;;;;29.98;20.12;;;;;;;-1.21;100.00;100372.11;1722948;83;21616;-75
2022/12/05 07:08:36;;;;;;;24.50;17.55;;;;;;;-1.19;100.00;100372.56;1704152;83;21545;-75
2022/12/05 07:11:03;;;;;;;19.95;13.62;;;;;;;-1.18;100.00;100374.28;1710321;83;20942;-75
2022/12/05 07:13:30;;;;;;;26.30;16.50;;;;;;;-1.15;100.00;100374.34;1718937;83;21417;-75
2022/12/05 07:15:57;;;;;;;26.15;17.25;;;;;;;-1.15;100.00;100374.34;1718410;82;21457;-75
2022/12/05 07:18:25;;;;;;;27.98;18.15;;;;;;;-1.13;100.00;100371.77;1720457;83;21465;-75
2022/12/05 07:20:58;;;;;;;30.95;19.98;;;;;;;-1.11;100.00;100366.68;1703818;83;21055;-75
2022/12/05 07:23:24;;;;;;;25.00;18.20;;;;;;;-1.09;100.00;100375.22;1695668;83;21858;-75
2022/12/05 07:25:51;;;;;;;26.30;17.20;;;;;;;-1.09;100.00;100367.53;1696459;82;20986;-75
2022/12/05 07:28:18;;;;;;;22.35;17.42;;;;;;;-1.13;100.00;100367.50;1697930;82;20993;-75
2022/12/05 07:30:44;;;;;;;28.20;19.98;;;;;;;-1.11;100.00;100364.12;1700661;83;20934;-75
2022/12/05 07:33:11;;;;;;;22.80;17.55;;;;;;;-1.08;100.00;100361.58;1693623;82;21057;-76
2022/12/05 07:35:38;;;;;;;23.03;16.13;;;;;;;-1.07;100.00;100367.13;1694437;83;20977;-76
2022/12/05 07:38:04;;;;;;;19.42;13.93;;;;;;;-1.06;100.00;100362.47;1695893;83;20965;-75
2022/12/05 07:40:31;;;;;;;23.27;16.00;;;;;;;-1.06;100.00;100358.63;1721509;82;21043;-75
2022/12/05 07:42:57;;;;;;;23.02;15.38;;;;;;;-1.08;100.00;100348.77;1723238;82;21473;-75
2022/12/05 07:45:24;;;;;;;51.28;40.88;;;;;;;-1.14;100.00;100360.67;1721120;82;21029;-76
2022/12/05 07:47:50;;;;;;;36.88;25.52;;;;;;;-1.11;100.00;100369.24;1722820;82;21013;-75
2022/12/05 07:50:17;;;;;;;30.00;18.90;;;;;;;-1.08;100.00;100369.27;1721317;82;21086;-75
2022/12/05 07:52:44;;;;;;;22.17;15.40;;;;;;;-1.06;100.00;100372.72;1717733;82;21042;-75
2022/12/05 07:55:10;;;;;;;18.87;14.20;;;;;;;-1.03;100.00;100368.91;1716407;83;21078;-75
2022/12/05 07:57:37;;;;;;;19.07;13.93;;;;;;;-1.03;100.00;100363.34;1662022;86;21511;-76
2022/12/05 08:00:05;;;;;;;20.77;14.80;;;;;;;-1.04;100.00;100366.73;1674185;84;21047;-75
2022/12/05 08:02:32;;;;;;;21.42;14.80;;;;;;;-1.06;100.00;100352.22;1704050;83;20966;-75
2022/12/05 08:04:59;;;;;;;21.70;14.50;;;;;;;-1.07;100.00;100347.91;1737167;82;21517;-75
2022/12/05 08:07:26;;;;;;;19.67;13.73;;;;;;;-1.08;100.00;100351.33;1704150;83;20991;-75
2022/12/05 08:09:52;;;;;;;19.85;13.62;;;;;;;-1.08;100.00;100360.30;1675052;85;21060;-76
2022/12/05 08:12:19;;;;;;;22.25;14.83;;;;;;;-1.03;100.00;100367.62;1663019;84;21716;-76
2022/12/05 08:14:45;;;;;;;19.85;14.45;;;;;;;-1.00;100.00;100368.93;1701780;83;21533;-76
2022/12/05 08:17:12;;;;;;;24.98;15.50;;;;;;;-1.03;100.00;100358.65;1711257;83;21073;-75
2022/12/05 08:19:39;;;;;;;21.07;15.13;;;;;;;-1.04;100.00;100371.01;1716763;82;21137;-76
2022/12/05 08:22:05;;;;;;;20.08;13.98;;;;;;;-1.04;100.00;100371.01;1681850;84;21048;-75
2022/12/05 08:24:32;;;;;;;21.68;14.65;;;;;;;-1.04;100.00;100371.01;1674306;85;21020;-75
2022/12/05 08:26:58;;;;;;;22.60;13.15;;;;;;;-1.03;100.00;100367.62;1665393;85;21014;-75
2022/12/05 08:29:25;;;;;;;22.58;15.20;;;;;;;-1.02;100.00;100357.79;1678711;84;21023;-76
2022/12/05 08:31:52;;;;;;;23.13;14.67;;;;;;;-1.02;100.00;100364.20;1648462;86;21014;-75
2022/12/05 08:34:19;;;;;;;20.50;14.23;;;;;;;-0.99;100.00;100359.10;1668999;86;21045;-75
2022/12/05 08:36:47;;;;;;;24.02;14.90;;;;;;;-1.05;100.00;100356.48;1674225;86;21081;-76
2022/12/05 08:39:18;;;;;;;21.80;14.60;;;;;;;-1.06;100.00;100367.59;1663260;86;21471;-75
2022/12/05 08:41:47;;;;;;;27.62;15.93;;;;;;;-1.05;100.00;100366.73;1668205;86;21690;-76
2022/12/05 08:44:15;;;;;;;21.40;13.90;;;;;;;-1.06;100.00;100362.47;1628593;86;20993;-75
2022/12/05 08:46:45;;;;;;;22.37;14.25;;;;;;;-1.06;100.00;100362.47;1701431;83;21015;-75
2022/12/05 08:49:13;;;;;;;24.25;16.73;;;;;;;-1.06;100.00;100359.48;1704660;83;20971;-75
2022/12/05 08:51:41;;;;;;;21.40;15.48;;;;;;;-1.05;100.00;100364.17;1719373;82;21060;-75
2022/12/05 08:54:09;;;;;;;21.65;15.75;;;;;;;-1.04;100.00;100371.01;1723193;83;21030;-75
2022/12/05 08:56:37;;;;;;;29.87;18.45;;;;;;;-1.04;100.00;100365.45;1724453;83;21084;-75
2022/12/05 08:59:05;;;;;;;21.40;15.23;;;;;;;-1.04;100.00;100363.31;1728627;82;21085;-75
2022/12/05 09:01:37;;;;;;;22.80;15.63;;;;;;;-1.03;100.00;100367.62;1711585;83;21089;-75
2022/12/05 09:04:03;;;;;;;27.17;16.02;;;;;;;-1.01;100.00;100367.19;1715720;83;21045;-76
2022/12/05 09:06:31;;;;;;;25.35;16.27;;;;;;;-0.95;100.00;100359.16;1723330;83;21069;-75
2022/12/05 09:09:03;;;;;;;25.10;16.23;;;;;;;-0.92;100.00;100355.77;1721023;83;21029;-76
2022/12/05 09:11:34;;;;;;;24.10;17.27;;;;;;;-0.86;100.00;100360.09;1716591;82;21117;-76
2022/12/05 09:14:01;;;;;;;23.25;15.15;;;;;;;-0.83;100.00;100357.12;1715109;83;21504;-75
2022/12/05 09:16:33;;;;;;;23.10;16.30;;;;;;;-0.79;100.00;100355.01;1721461;83;21038;-76
2022/12/05 09:19:00;;;;;;;28.57;16.40;;;;;;;-0.81;100.00;100351.59;1720408;83;22412;-75
2022/12/05 09:21:30;;;;;;;21.60;15.05;;;;;;;-0.78;100.00;100350.34;1722767;81;21489;-76
2022/12/05 09:23:59;;;;;;;19.32;14.13;;;;;;;-0.82;100.00;100329.34;1723198;83;21045;-75
2022/12/05 09:26:29;;;;;;;23.55;16.45;;;;;;;-0.76;100.00;100344.78;1717804;83;21031;-76
2022/12/05 09:28:56;;;;;;;22.65;15.68;;;;;;;-0.62;100.00;100336.34;1720385;82;20993;-76
2022/12/05 09:31:26;;;;;;;24.40;14.78;;;;;;;-0.69;100.00;100336.30;1708789;83;20975;-76
2022/12/05 09:33:53;;;;;;;20.20;15.00;;;;;;;-0.61;100.00;100329.11;1713020;82;21460;-76
2022/12/05 09:36:27;;;;;;;22.32;15.90;;;;;;;-0.68;100.00;100330.31;1717322;83;21556;-76
2022/12/05 09:38:57;;;;;;;20.02;13.30;;;;;;;-0.77;100.00;100327.69;1725413;82;21497;-76
2022/12/05 09:42:07;;;;;;;20.85;15.23;;;;;;;-0.81;100.00;100318.27;1724026;83;20994;-76
2022/12/05 09:45:16;;;;;;;20.85;13.45;;;;;;;-0.81;100.00;100313.14;1718501;82;20996;-75
2022/12/05 09:47:55;;;;;;;25.90;17.20;;;;;;;-0.78;100.00;100303.33;1717820;82;21037;-76
2022/12/05 09:50:33;;;;;;;90.10;64.77;;;;;;;-0.77;100.00;100307.17;1723181;82;21041;-76
2022/12/05 09:53:15;;;;;;;;;;;;;;;-0.73;100.00;100303.80;1727014;82;20998;-76
2022/12/05 09:55:55;;;;;;;21.57;13.90;;;;;;;-0.69;100.00;100290.58;1717321;83;20175;-74
2022/12/05 09:58:45;;;;;;;21.20;14.55;;;;;;;-0.78;100.00;100282.39;1721971;82;21038;-75
2022/12/05 10:01:32;;;;;;;19.50;14.90;;;;;;;-0.83;100.00;100286.62;1725472;82;20963;-75
2022/12/05 10:04:33;;;;;;;20.68;14.85;;;;;;;-0.87;100.00;100287.42;1723778;83;21065;-75
2022/12/05 10:07:21;;;;;;;20.92;14.50;;;;;;;-0.88;100.00;100290.84;1720557;81;21609;-75
2022/12/05 10:10:15;;;;;;;23.18;15.40;;;;;;;-0.86;100.00;100289.16;1709579;83;21016;-75
2022/12/05 10:13:22;;;;;;;26.15;15.68;;;;;;;-0.88;100.00;100298.53;1700754;83;20980;-74
2022/12/05 10:16:06;;;;;;;23.98;16.90;;;;;;;-0.66;100.00;100288.45;1701566;83;21615;-74
2022/12/05 10:18:44;;;;;;;27.05;17.27;;;;;;;-0.58;100.00;100290.23;1717911;82;21596;-74
2022/12/05 10:21:35;;;;;;;;;;;;;;;-0.72;100.00;100284.99;1697404;83;21540;-74
2022/12/05 10:24:16;;;;;;;23.87;15.03;;;;;;;-0.75;100.00;100279.84;1713199;82;20160;-75
2022/12/05 10:26:51;;;;;;;24.18;16.27;;;;;;;-0.82;100.00;100275.50;1716419;83;20943;-75
2022/12/05 10:29:29;;;;;;;25.27;14.70;;;;;;;-0.77;100.00;100277.69;1714928;83;21076;-75
2022/12/05 10:32:10;;;;;;;19.30;14.33;;;;;;;-0.80;100.00;100276.81;1707039;82;21069;-75
2022/12/05 10:34:41;;;;;;;24.20;14.90;;;;;;;-0.72;100.00;100279.02;1715376;83;20969;-75
2022/12/05 10:37:20;;;;;;;28.67;19.37;;;;;;;-0.77;100.00;100273.84;1716126;83;21056;-75
2022/12/05 10:39:49;;;;;;;25.85;16.60;;;;;;;-0.77;100.00;100272.98;1727023;82;21061;-75
2022/12/05 10:42:26;;;;;;;25.02;17.23;;;;;;;-0.76;100.00;100267.85;1720361;83;21146;-75
2022/12/05 10:44:56;;;;;;;31.20;18.55;;;;;;;-0.73;100.00;100274.31;1704521;83;21587;-75
2022/12/05 10:47:24;;;;;;;29.92;18.77;;;;;;;-0.72;100.00;100268.33;1728150;80;21025;-75
2022/12/05 10:49:52;;;;;;;26.75;17.05;;;;;;;-0.69;100.00;100267.06;1702441;83;21586;-75
2022/12/05 10:52:19;;;;;;;28.30;18.95;;;;;;;-0.63;100.00;100261.55;1708582;82;21069;-76
2022/12/05 10:54:56;;;;;;;29.10;19.85;;;;;;;-0.62;100.00;100260.69;1708924;82;20958;-75
2022/12/05 10:57:29;;;;;;;28.77;18.82;;;;;;;-0.63;100.00;100250.00;1719904;82;21098;-75
2022/12/05 10:59:56;;;;;;;30.97;19.20;;;;;;;-0.64;100.00;100250.83;1709004;83;21571;-75
2022/12/05 11:02:30;;;;;;;29.57;18.50;;;;;;;-0.65;100.00;100254.26;1712586;82;21523;-75
2022/12/05 11:04:58;;;;;;;27.50;19.05;;;;;;;-0.62;100.00;100254.27;1719566;83;21109;-75
2022/12/05 11:07:47;;;;;;;28.73;17.95;;;;;;;-0.59;100.00;100251.73;1734405;81;21143;-76
2022/12/05 11:10:36;;;;;;;25.37;18.67;;;;;;;-0.59;100.00;100253.01;1713198;83;21025;-75
2022/12/05 11:13:14;;;;;;;28.07;16.37;;;;;;;-0.69;100.00;100243.98;1692659;83;21052;-75
2022/12/05 11:15:46;;;;;;;23.92;16.52;;;;;;;-0.75;100.00;100260.61;1715874;82;21069;-75
2022/12/05 11:18:27;;;;;;;25.35;17.90;;;;;;;-0.76;100.00;100243.48;1727340;82;21425;-75
2022/12/05 11:20:55;;;;;;;21.70;15.15;;;;;;;-0.76;100.00;100238.80;1717785;81;21000;-75
2022/12/05 11:23:25;;;;;;;;;;;;;;;-0.79;100.00;100234.50;1718318;82;21027;-75
2022/12/05 11:25:53;;;;;;;27.45;18.60;;;;;;;-0.78;100.00;100232.39;1730428;82;20488;-75
2022/12/05 11:28:31;;;;;;;26.95;16.73;;;;;;;-0.79;100.00;100237.06;1714360;82;21011;-75
2022/12/05 11:31:09;;;;;;;30.15;18.17;;;;;;;-0.79;100.00;100228.09;1718685;82;21572;-76
2022/12/05 11:33:36;;;;;;;27.80;19.05;;;;;;;-0.79;100.00;100228.09;1704933;82;21049;-75
2022/12/05 11:36:19;;;;;;;25.48;17.35;;;;;;;-0.78;100.00;100227.69;1717714;82;21090;-76